sensor_id;sensor_type;location;lat;lon;timestamp;temperature;humidity
64549;DHT22;49838;51.798;10.954;2023-09-07T00:00:38;24.90;26.90
64549;DHT22;49838;51.798;10.954;2023-09-07T00:03:06;24.80;26.90
64549;DHT22;49838;51.798;10.954;2023-09-07T00:05:33;24.80;26.90
64549;DHT22;49838;51.798;10.954;2023-09-07T00:08:00;24.80;27.00
64549;DHT22;49838;51.798;10.954;2023-09-07T00:10:29;24.70;26.90
64549;DHT22;49838;51.798;10.954;2023-09-07T00:12:57;24.70;26.90
64549;DHT22;49838;51.798;10.954;2023-09-07T00:15:24;24.60;26.90
64549;DHT22;49838;51.798;10.954;2023-09-07T00:17:52;24.60;26.90
64549;DHT22;49838;51.798;10.954;2023-09-07T00:20:19;24.60;26.90
64549;DHT22;49838;51.798;10.954;2023-09-07T00:22:47;24.60;27.00
64549;DHT22;49838;51.798;10.954;2023-09-07T00:25:15;24.60;27.00
64549;DHT22;49838;51.798;10.954;2023-09-07T00:27:43;24.50;26.90
64549;DHT22;49838;51.798;10.954;2023-09-07T00:30:11;24.50;26.90
64549;DHT22;49838;51.798;10.954;2023-09-07T00:32:39;24.50;26.90
64549;DHT22;49838;51.798;10.954;2023-09-07T00:35:06;24.50;26.90
64549;DHT22;49838;51.798;10.954;2023-09-07T00:37:34;24.50;26.90
64549;DHT22;49838;51.798;10.954;2023-09-07T00:40:01;24.50;26.90
64549;DHT22;49838;51.798;10.954;2023-09-07T00:42:29;24.50;27.00
64549;DHT22;49838;51.798;10.954;2023-09-07T00:44:58;24.40;26.90
64549;DHT22;49838;51.798;10.954;2023-09-07T00:47:25;24.40;27.00
64549;DHT22;49838;51.798;10.954;2023-09-07T00:49:53;24.40;27.00
64549;DHT22;49838;51.798;10.954;2023-09-07T00:52:21;24.30;27.00
64549;DHT22;49838;51.798;10.954;2023-09-07T00:54:48;24.30;27.00
64549;DHT22;49838;51.798;10.954;2023-09-07T00:57:16;24.30;27.60
64549;DHT22;49838;51.798;10.954;2023-09-07T00:59:43;24.20;26.90
64549;DHT22;49838;51.798;10.954;2023-09-07T01:05:39;24.20;27.00
64549;DHT22;49838;51.798;10.954;2023-09-07T01:08:15;24.20;27.00
64549;DHT22;49838;51.798;10.954;2023-09-07T01:10:46;24.10;27.00
64549;DHT22;49838;51.798;10.954;2023-09-07T01:13:14;24.10;27.00
64549;DHT22;49838;51.798;10.954;2023-09-07T01:15:41;24.10;27.10
64549;DHT22;49838;51.798;10.954;2023-09-07T01:18:09;24.00;27.00
64549;DHT22;49838;51.798;10.954;2023-09-07T01:20:38;24.00;27.00
64549;DHT22;49838;51.798;10.954;2023-09-07T01:23:09;23.90;27.10
64549;DHT22;49838;51.798;10.954;2023-09-07T01:25:38;23.90;27.10
64549;DHT22;49838;51.798;10.954;2023-09-07T01:28:08;23.90;27.10
64549;DHT22;49838;51.798;10.954;2023-09-07T01:30:36;23.90;27.60
64549;DHT22;49838;51.798;10.954;2023-09-07T01:33:03;23.80;27.10
64549;DHT22;49838;51.798;10.954;2023-09-07T01:35:31;23.80;27.10
64549;DHT22;49838;51.798;10.954;2023-09-07T01:38:00;23.80;27.20
64549;DHT22;49838;51.798;10.954;2023-09-07T01:40:29;23.70;27.20
64549;DHT22;49838;51.798;10.954;2023-09-07T01:42:57;23.70;27.20
64549;DHT22;49838;51.798;10.954;2023-09-07T01:45:24;23.60;27.20
64549;DHT22;49838;51.798;10.954;2023-09-07T01:47:52;23.60;27.20
64549;DHT22;49838;51.798;10.954;2023-09-07T01:50:19;23.60;27.30
64549;DHT22;49838;51.798;10.954;2023-09-07T01:52:47;23.60;27.20
64549;DHT22;49838;51.798;10.954;2023-09-07T01:55:15;23.50;27.20
64549;DHT22;49838;51.798;10.954;2023-09-07T01:57:44;23.50;27.20
64549;DHT22;49838;51.798;10.954;2023-09-07T02:00:12;23.50;27.20
64549;DHT22;49838;51.798;10.954;2023-09-07T02:02:39;23.50;27.20
64549;DHT22;49838;51.798;10.954;2023-09-07T02:05:07;23.40;27.20
64549;DHT22;49838;51.798;10.954;2023-09-07T02:07:35;23.40;27.20
64549;DHT22;49838;51.798;10.954;2023-09-07T02:10:03;23.40;27.20
64549;DHT22;49838;51.798;10.954;2023-09-07T02:12:30;23.40;27.20
64549;DHT22;49838;51.798;10.954;2023-09-07T02:15:01;23.40;27.20
64549;DHT22;49838;51.798;10.954;2023-09-07T02:17:29;23.30;27.20
64549;DHT22;49838;51.798;10.954;2023-09-07T02:19:56;23.30;27.30
64549;DHT22;49838;51.798;10.954;2023-09-07T02:22:24;23.30;27.30
64549;DHT22;49838;51.798;10.954;2023-09-07T02:24:51;23.30;27.30
64549;DHT22;49838;51.798;10.954;2023-09-07T02:27:19;23.30;27.80
64549;DHT22;49838;51.798;10.954;2023-09-07T02:29:46;23.20;27.30
64549;DHT22;49838;51.798;10.954;2023-09-07T02:32:15;23.30;27.40
64549;DHT22;49838;51.798;10.954;2023-09-07T02:34:42;23.20;27.30
64549;DHT22;49838;51.798;10.954;2023-09-07T02:37:09;23.20;27.30
64549;DHT22;49838;51.798;10.954;2023-09-07T02:39:37;23.10;27.20
64549;DHT22;49838;51.798;10.954;2023-09-07T02:42:04;23.10;27.20
64549;DHT22;49838;51.798;10.954;2023-09-07T02:44:32;23.10;27.20
64549;DHT22;49838;51.798;10.954;2023-09-07T02:46:59;23.10;27.30
64549;DHT22;49838;51.798;10.954;2023-09-07T02:49:28;23.10;27.80
64549;DHT22;49838;51.798;10.954;2023-09-07T02:51:55;23.10;27.30
64549;DHT22;49838;51.798;10.954;2023-09-07T02:54:23;23.10;27.30
64549;DHT22;49838;51.798;10.954;2023-09-07T02:56:50;23.00;27.30
64549;DHT22;49838;51.798;10.954;2023-09-07T02:59:18;23.00;27.30
64549;DHT22;49838;51.798;10.954;2023-09-07T03:01:45;23.00;27.30
64549;DHT22;49838;51.798;10.954;2023-09-07T03:04:13;23.00;27.30
64549;DHT22;49838;51.798;10.954;2023-09-07T03:06:41;23.00;27.40
64549;DHT22;49838;51.798;10.954;2023-09-07T03:09:09;23.00;27.40
64549;DHT22;49838;51.798;10.954;2023-09-07T03:11:36;22.90;27.40
64549;DHT22;49838;51.798;10.954;2023-09-07T03:14:03;22.90;27.40
64549;DHT22;49838;51.798;10.954;2023-09-07T03:16:30;22.90;27.40
64549;DHT22;49838;51.798;10.954;2023-09-07T03:18:58;22.90;27.50
64549;DHT22;49838;51.798;10.954;2023-09-07T03:21:25;22.80;27.30
64549;DHT22;49838;51.798;10.954;2023-09-07T03:23:56;22.80;27.40
64549;DHT22;49838;51.798;10.954;2023-09-07T03:26:24;22.80;27.40
64549;DHT22;49838;51.798;10.954;2023-09-07T03:28:51;22.80;27.40
64549;DHT22;49838;51.798;10.954;2023-09-07T03:31:18;22.80;27.30
64549;DHT22;49838;51.798;10.954;2023-09-07T03:33:46;22.80;27.40
64549;DHT22;49838;51.798;10.954;2023-09-07T03:36:13;22.80;27.40
64549;DHT22;49838;51.798;10.954;2023-09-07T03:38:41;22.80;27.40
64549;DHT22;49838;51.798;10.954;2023-09-07T03:41:10;22.80;27.40
64549;DHT22;49838;51.798;10.954;2023-09-07T03:43:37;22.80;27.40
64549;DHT22;49838;51.798;10.954;2023-09-07T03:46:05;22.80;27.40
64549;DHT22;49838;51.798;10.954;2023-09-07T03:48:32;22.80;27.40
64549;DHT22;49838;51.798;10.954;2023-09-07T03:51:00;22.80;27.40
64549;DHT22;49838;51.798;10.954;2023-09-07T03:53:27;22.70;27.40
64549;DHT22;49838;51.798;10.954;2023-09-07T03:55:54;22.70;27.40
64549;DHT22;49838;51.798;10.954;2023-09-07T03:58:23;22.70;27.50
64549;DHT22;49838;51.798;10.954;2023-09-07T04:00:50;22.70;27.50
64549;DHT22;49838;51.798;10.954;2023-09-07T04:03:18;22.60;27.50
64549;DHT22;49838;51.798;10.954;2023-09-07T04:05:45;22.60;27.50
64549;DHT22;49838;51.798;10.954;2023-09-07T04:08:12;22.60;27.50
64549;DHT22;49838;51.798;10.954;2023-09-07T04:10:39;22.60;27.50
64549;DHT22;49838;51.798;10.954;2023-09-07T04:13:07;22.60;27.50
64549;DHT22;49838;51.798;10.954;2023-09-07T04:15:39;22.60;27.50
64549;DHT22;49838;51.798;10.954;2023-09-07T04:18:08;22.60;27.50
64549;DHT22;49838;51.798;10.954;2023-09-07T04:20:35;22.60;27.50
64549;DHT22;49838;51.798;10.954;2023-09-07T04:23:03;22.60;27.50
64549;DHT22;49838;51.798;10.954;2023-09-07T04:25:30;22.60;27.60
64549;DHT22;49838;51.798;10.954;2023-09-07T04:27:58;22.60;27.60
64549;DHT22;49838;51.798;10.954;2023-09-07T04:30:26;22.50;27.50
64549;DHT22;49838;51.798;10.954;2023-09-07T04:32:55;22.50;28.10
64549;DHT22;49838;51.798;10.954;2023-09-07T04:35:26;22.50;27.60
64549;DHT22;49838;51.798;10.954;2023-09-07T04:37:55;22.50;27.60
64549;DHT22;49838;51.798;10.954;2023-09-07T04:40:22;22.50;27.70
64549;DHT22;49838;51.798;10.954;2023-09-07T04:42:50;22.50;27.70
64549;DHT22;49838;51.798;10.954;2023-09-07T04:45:18;22.50;27.70
64549;DHT22;49838;51.798;10.954;2023-09-07T04:47:45;22.50;27.70
64549;DHT22;49838;51.798;10.954;2023-09-07T04:50:14;22.50;27.80
64549;DHT22;49838;51.798;10.954;2023-09-07T04:52:42;22.50;27.80
64549;DHT22;49838;51.798;10.954;2023-09-07T04:55:09;22.50;27.90
64549;DHT22;49838;51.798;10.954;2023-09-07T04:57:37;22.50;27.90
64549;DHT22;49838;51.798;10.954;2023-09-07T05:00:05;22.50;27.90
64549;DHT22;49838;51.798;10.954;2023-09-07T05:02:33;22.50;27.90
64549;DHT22;49838;51.798;10.954;2023-09-07T05:05:04;22.50;27.90
64549;DHT22;49838;51.798;10.954;2023-09-07T05:07:33;22.60;28.00
64549;DHT22;49838;51.798;10.954;2023-09-07T05:10:01;22.60;28.00
64549;DHT22;49838;51.798;10.954;2023-09-07T05:12:28;22.70;28.00
64549;DHT22;49838;51.798;10.954;2023-09-07T05:14:56;22.70;28.00
64549;DHT22;49838;51.798;10.954;2023-09-07T05:17:23;22.80;28.60
64549;DHT22;49838;51.798;10.954;2023-09-07T05:19:51;22.80;28.10
64549;DHT22;49838;51.798;10.954;2023-09-07T05:22:18;22.90;28.10
64549;DHT22;49838;51.798;10.954;2023-09-07T05:24:47;22.90;28.10
64549;DHT22;49838;51.798;10.954;2023-09-07T05:27:14;23.00;28.20
64549;DHT22;49838;51.798;10.954;2023-09-07T05:29:41;23.10;28.30
64549;DHT22;49838;51.798;10.954;2023-09-07T05:32:09;23.20;28.40
64549;DHT22;49838;51.798;10.954;2023-09-07T05:34:37;23.30;28.40
64549;DHT22;49838;51.798;10.954;2023-09-07T05:37:04;23.50;28.60
64549;DHT22;49838;51.798;10.954;2023-09-07T05:39:31;23.80;28.90
64549;DHT22;49838;51.798;10.954;2023-09-07T05:42:00;24.40;29.30
64549;DHT22;49838;51.798;10.954;2023-09-07T05:44:27;25.00;29.40
64549;DHT22;49838;51.798;10.954;2023-09-07T05:46:54;25.50;29.60
64549;DHT22;49838;51.798;10.954;2023-09-07T05:49:24;26.00;29.70
64549;DHT22;49838;51.798;10.954;2023-09-07T05:51:51;26.50;29.80
64549;DHT22;49838;51.798;10.954;2023-09-07T05:54:19;27.00;30.00
64549;DHT22;49838;51.798;10.954;2023-09-07T05:56:46;27.50;30.10
64549;DHT22;49838;51.798;10.954;2023-09-07T05:59:15;28.00;30.20
64549;DHT22;49838;51.798;10.954;2023-09-07T06:01:42;28.60;30.40
64549;DHT22;49838;51.798;10.954;2023-09-07T06:04:10;29.10;30.50
64549;DHT22;49838;51.798;10.954;2023-09-07T06:06:37;29.60;30.40
64549;DHT22;49838;51.798;10.954;2023-09-07T06:09:05;30.10;30.60
64549;DHT22;49838;51.798;10.954;2023-09-07T06:11:32;30.50;30.70
64549;DHT22;49838;51.798;10.954;2023-09-07T06:14:00;30.80;30.70
64549;DHT22;49838;51.798;10.954;2023-09-07T06:16:30;31.10;30.80
64549;DHT22;49838;51.798;10.954;2023-09-07T06:18:57;31.40;30.80
64549;DHT22;49838;51.798;10.954;2023-09-07T06:21:24;31.70;30.70
64549;DHT22;49838;51.798;10.954;2023-09-07T06:23:52;32.10;30.80
64549;DHT22;49838;51.798;10.954;2023-09-07T06:26:19;32.30;30.70
64549;DHT22;49838;51.798;10.954;2023-09-07T06:28:46;32.70;30.80
64549;DHT22;49838;51.798;10.954;2023-09-07T06:31:14;33.00;30.80
64549;DHT22;49838;51.798;10.954;2023-09-07T06:33:43;33.40;30.70
64549;DHT22;49838;51.798;10.954;2023-09-07T06:36:10;33.70;30.60
64549;DHT22;49838;51.798;10.954;2023-09-07T06:38:37;34.00;30.50
64549;DHT22;49838;51.798;10.954;2023-09-07T06:41:05;34.30;30.40
64549;DHT22;49838;51.798;10.954;2023-09-07T06:43:33;34.60;30.40
64549;DHT22;49838;51.798;10.954;2023-09-07T06:46:05;34.90;30.40
64549;DHT22;49838;51.798;10.954;2023-09-07T06:48:33;35.10;30.20
64549;DHT22;49838;51.798;10.954;2023-09-07T06:51:03;35.30;30.20
64549;DHT22;49838;51.798;10.954;2023-09-07T06:53:30;35.50;30.20
64549;DHT22;49838;51.798;10.954;2023-09-07T06:55:58;35.70;30.20
64549;DHT22;49838;51.798;10.954;2023-09-07T06:58:25;35.90;30.20
64549;DHT22;49838;51.798;10.954;2023-09-07T07:00:56;36.10;30.10
64549;DHT22;49838;51.798;10.954;2023-09-07T07:03:26;36.20;30.00
64549;DHT22;49838;51.798;10.954;2023-09-07T07:05:54;36.20;30.00
64549;DHT22;49838;51.798;10.954;2023-09-07T07:08:23;36.40;30.00
64549;DHT22;49838;51.798;10.954;2023-09-07T07:10:51;36.50;29.80
64549;DHT22;49838;51.798;10.954;2023-09-07T07:13:18;36.70;29.60
64549;DHT22;49838;51.798;10.954;2023-09-07T07:15:46;36.70;29.60
64549;DHT22;49838;51.798;10.954;2023-09-07T07:18:13;36.50;29.50
64549;DHT22;49838;51.798;10.954;2023-09-07T07:20:42;36.50;29.70
64549;DHT22;49838;51.798;10.954;2023-09-07T07:23:10;36.60;29.70
64549;DHT22;49838;51.798;10.954;2023-09-07T07:25:39;36.70;29.60
64549;DHT22;49838;51.798;10.954;2023-09-07T07:28:07;36.90;29.80
64549;DHT22;49838;51.798;10.954;2023-09-07T07:30:37;37.20;29.70
64549;DHT22;49838;51.798;10.954;2023-09-07T07:33:06;37.30;29.80
64549;DHT22;49838;51.798;10.954;2023-09-07T07:35:34;37.40;29.90
64549;DHT22;49838;51.798;10.954;2023-09-07T07:38:03;37.50;29.80
64549;DHT22;49838;51.798;10.954;2023-09-07T07:40:32;37.60;29.80
64549;DHT22;49838;51.798;10.954;2023-09-07T07:43:00;37.90;29.90
64549;DHT22;49838;51.798;10.954;2023-09-07T07:45:28;38.00;29.60
64549;DHT22;49838;51.798;10.954;2023-09-07T07:47:56;38.10;29.80
64549;DHT22;49838;51.798;10.954;2023-09-07T07:50:23;38.20;29.70
64549;DHT22;49838;51.798;10.954;2023-09-07T07:52:51;38.30;29.50
64549;DHT22;49838;51.798;10.954;2023-09-07T07:55:18;38.30;29.30
64549;DHT22;49838;51.798;10.954;2023-09-07T07:57:46;38.30;29.30
64549;DHT22;49838;51.798;10.954;2023-09-07T08:00:15;38.40;29.60
64549;DHT22;49838;51.798;10.954;2023-09-07T08:02:42;38.50;29.50
64549;DHT22;49838;51.798;10.954;2023-09-07T08:05:10;38.70;29.60
64549;DHT22;49838;51.798;10.954;2023-09-07T08:07:38;38.90;29.50
64549;DHT22;49838;51.798;10.954;2023-09-07T08:10:05;39.10;29.60
64549;DHT22;49838;51.798;10.954;2023-09-07T08:12:33;39.30;29.50
64549;DHT22;49838;51.798;10.954;2023-09-07T08:15:00;39.50;29.50
64549;DHT22;49838;51.798;10.954;2023-09-07T08:17:29;39.60;29.30
64549;DHT22;49838;51.798;10.954;2023-09-07T08:19:57;39.80;29.30
64549;DHT22;49838;51.798;10.954;2023-09-07T08:22:24;39.90;29.40
64549;DHT22;49838;51.798;10.954;2023-09-07T08:24:53;40.10;29.30
64549;DHT22;49838;51.798;10.954;2023-09-07T08:27:21;40.20;29.20
64549;DHT22;49838;51.798;10.954;2023-09-07T08:29:48;40.40;29.20
64549;DHT22;49838;51.798;10.954;2023-09-07T08:32:17;40.60;29.30
64549;DHT22;49838;51.798;10.954;2023-09-07T08:34:46;40.80;29.10
64549;DHT22;49838;51.798;10.954;2023-09-07T08:37:13;41.00;29.30
64549;DHT22;49838;51.798;10.954;2023-09-07T08:39:40;41.20;29.10
64549;DHT22;49838;51.798;10.954;2023-09-07T08:42:08;41.30;28.80
64549;DHT22;49838;51.798;10.954;2023-09-07T08:44:36;41.40;28.70
64549;DHT22;49838;51.798;10.954;2023-09-07T08:47:04;41.60;29.00
64549;DHT22;49838;51.798;10.954;2023-09-07T08:49:32;41.90;28.70
64549;DHT22;49838;51.798;10.954;2023-09-07T08:52:02;42.00;28.70
64549;DHT22;49838;51.798;10.954;2023-09-07T08:54:30;42.20;28.60
64549;DHT22;49838;51.798;10.954;2023-09-07T08:57:01;42.20;28.40
64549;DHT22;49838;51.798;10.954;2023-09-07T08:59:30;42.30;28.40
64549;DHT22;49838;51.798;10.954;2023-09-07T09:01:57;42.40;28.50
64549;DHT22;49838;51.798;10.954;2023-09-07T09:04:25;42.70;28.60
64549;DHT22;49838;51.798;10.954;2023-09-07T09:06:53;42.90;28.40
64549;DHT22;49838;51.798;10.954;2023-09-07T09:09:23;43.20;28.50
64549;DHT22;49838;51.798;10.954;2023-09-07T09:11:51;43.20;28.00
64549;DHT22;49838;51.798;10.954;2023-09-07T09:14:18;43.30;28.10
64549;DHT22;49838;51.798;10.954;2023-09-07T09:16:48;43.40;28.20
64549;DHT22;49838;51.798;10.954;2023-09-07T09:19:16;43.60;27.70
64549;DHT22;49838;51.798;10.954;2023-09-07T09:21:44;43.60;28.00
64549;DHT22;49838;51.798;10.954;2023-09-07T09:24:12;43.70;27.80
64549;DHT22;49838;51.798;10.954;2023-09-07T09:26:41;43.80;27.90
64549;DHT22;49838;51.798;10.954;2023-09-07T09:29:09;43.90;27.80
64549;DHT22;49838;51.798;10.954;2023-09-07T09:31:37;44.10;27.80
64549;DHT22;49838;51.798;10.954;2023-09-07T09:34:04;44.20;27.70
64549;DHT22;49838;51.798;10.954;2023-09-07T09:36:35;44.40;27.80
64549;DHT22;49838;51.798;10.954;2023-09-07T09:39:03;44.50;27.50
64549;DHT22;49838;51.798;10.954;2023-09-07T09:41:31;44.60;27.70
64549;DHT22;49838;51.798;10.954;2023-09-07T09:44:01;44.60;27.10
64549;DHT22;49838;51.798;10.954;2023-09-07T09:46:31;44.50;26.90
64549;DHT22;49838;51.798;10.954;2023-09-07T09:48:59;44.40;27.10
64549;DHT22;49838;51.798;10.954;2023-09-07T09:51:27;44.40;27.20
64549;DHT22;49838;51.798;10.954;2023-09-07T09:53:57;44.40;27.10
64549;DHT22;49838;51.798;10.954;2023-09-07T09:56:25;44.40;26.90
64549;DHT22;49838;51.798;10.954;2023-09-07T09:58:52;44.30;26.60
64549;DHT22;49838;51.798;10.954;2023-09-07T10:01:21;44.20;26.80
64549;DHT22;49838;51.798;10.954;2023-09-07T10:03:49;44.20;26.90
64549;DHT22;49838;51.798;10.954;2023-09-07T10:06:18;44.20;26.80
64549;DHT22;49838;51.798;10.954;2023-09-07T10:08:53;44.20;27.00
64549;DHT22;49838;51.798;10.954;2023-09-07T10:11:29;44.20;27.00
64549;DHT22;49838;51.798;10.954;2023-09-07T10:13:57;44.40;26.90
64549;DHT22;49838;51.798;10.954;2023-09-07T10:16:26;44.60;27.10
64549;DHT22;49838;51.798;10.954;2023-09-07T10:18:53;44.80;27.10
64549;DHT22;49838;51.798;10.954;2023-09-07T10:21:24;45.00;26.80
64549;DHT22;49838;51.798;10.954;2023-09-07T10:23:52;45.00;26.30
64549;DHT22;49838;51.798;10.954;2023-09-07T10:26:20;45.00;26.60
64549;DHT22;49838;51.798;10.954;2023-09-07T10:28:58;45.00;26.40
64549;DHT22;49838;51.798;10.954;2023-09-07T10:31:27;45.00;26.60
64549;DHT22;49838;51.798;10.954;2023-09-07T10:33:56;45.20;26.50
64549;DHT22;49838;51.798;10.954;2023-09-07T10:36:34;45.20;26.30
64549;DHT22;49838;51.798;10.954;2023-09-07T10:39:03;45.20;26.40
64549;DHT22;49838;51.798;10.954;2023-09-07T10:41:39;45.30;26.50
64549;DHT22;49838;51.798;10.954;2023-09-07T10:44:07;45.40;26.50
64549;DHT22;49838;51.798;10.954;2023-09-07T10:46:38;45.40;25.50
64549;DHT22;49838;51.798;10.954;2023-09-07T10:49:06;45.30;25.50
64549;DHT22;49838;51.798;10.954;2023-09-07T10:51:39;45.00;24.90
64549;DHT22;49838;51.798;10.954;2023-09-07T10:54:14;44.80;24.70
64549;DHT22;49838;51.798;10.954;2023-09-07T10:56:43;44.70;24.70
64549;DHT22;49838;51.798;10.954;2023-09-07T10:59:11;44.30;24.30
64549;DHT22;49838;51.798;10.954;2023-09-07T11:01:41;44.00;24.50
64549;DHT22;49838;51.798;10.954;2023-09-07T11:04:08;43.60;23.80
64549;DHT22;49838;51.798;10.954;2023-09-07T11:06:37;43.00;23.80
64549;DHT22;49838;51.798;10.954;2023-09-07T11:09:05;42.30;24.20
64549;DHT22;49838;51.798;10.954;2023-09-07T11:11:34;41.70;24.50
64549;DHT22;49838;51.798;10.954;2023-09-07T11:14:02;41.10;24.50
64549;DHT22;49838;51.798;10.954;2023-09-07T11:16:30;40.60;24.30
64549;DHT22;49838;51.798;10.954;2023-09-07T11:19:03;40.00;24.50
64549;DHT22;49838;51.798;10.954;2023-09-07T11:21:31;39.50;24.60
64549;DHT22;49838;51.798;10.954;2023-09-07T11:24:00;39.00;24.80
64549;DHT22;49838;51.798;10.954;2023-09-07T11:26:40;38.60;25.10
64549;DHT22;49838;51.798;10.954;2023-09-07T11:29:08;38.30;25.80
64549;DHT22;49838;51.798;10.954;2023-09-07T11:31:35;38.00;25.50
64549;DHT22;49838;51.798;10.954;2023-09-07T11:34:08;37.70;25.60
64549;DHT22;49838;51.798;10.954;2023-09-07T11:36:36;37.50;25.70
64549;DHT22;49838;51.798;10.954;2023-09-07T11:39:09;37.20;25.90
64549;DHT22;49838;51.798;10.954;2023-09-07T11:41:39;37.00;25.90
64549;DHT22;49838;51.798;10.954;2023-09-07T11:44:07;36.80;26.20
64549;DHT22;49838;51.798;10.954;2023-09-07T11:46:36;36.60;26.20
64549;DHT22;49838;51.798;10.954;2023-09-07T11:49:05;36.40;26.40
64549;DHT22;49838;51.798;10.954;2023-09-07T11:51:34;36.30;26.40
64549;DHT22;49838;51.798;10.954;2023-09-07T11:54:03;36.10;26.50
64549;DHT22;49838;51.798;10.954;2023-09-07T11:56:30;35.90;26.60
64549;DHT22;49838;51.798;10.954;2023-09-07T11:58:58;35.80;26.80
64549;DHT22;49838;51.798;10.954;2023-09-07T12:01:25;35.70;26.70
64549;DHT22;49838;51.798;10.954;2023-09-07T12:03:53;35.60;27.00
64549;DHT22;49838;51.798;10.954;2023-09-07T12:06:22;35.40;27.00
64549;DHT22;49838;51.798;10.954;2023-09-07T12:08:59;35.30;27.10
64549;DHT22;49838;51.798;10.954;2023-09-07T12:11:27;35.20;27.20
64549;DHT22;49838;51.798;10.954;2023-09-07T12:13:54;35.10;27.40
64549;DHT22;49838;51.798;10.954;2023-09-07T12:16:21;35.00;27.40
64549;DHT22;49838;51.798;10.954;2023-09-07T12:18:49;34.90;27.50
64549;DHT22;49838;51.798;10.954;2023-09-07T12:21:17;34.90;27.50
64549;DHT22;49838;51.798;10.954;2023-09-07T12:23:45;34.80;27.40
64549;DHT22;49838;51.798;10.954;2023-09-07T12:26:13;34.70;27.60
64549;DHT22;49838;51.798;10.954;2023-09-07T12:28:42;34.70;27.60
64549;DHT22;49838;51.798;10.954;2023-09-07T12:31:10;34.70;27.70
64549;DHT22;49838;51.798;10.954;2023-09-07T12:33:38;34.60;27.50
64549;DHT22;49838;51.798;10.954;2023-09-07T12:36:07;34.70;27.70
64549;DHT22;49838;51.798;10.954;2023-09-07T12:38:36;34.70;27.50
64549;DHT22;49838;51.798;10.954;2023-09-07T12:41:04;34.60;27.90
64549;DHT22;49838;51.798;10.954;2023-09-07T12:43:32;34.60;27.90
64549;DHT22;49838;51.798;10.954;2023-09-07T12:45:59;34.60;27.70
64549;DHT22;49838;51.798;10.954;2023-09-07T12:48:26;34.50;27.80
64549;DHT22;49838;51.798;10.954;2023-09-07T12:50:54;34.50;27.80
64549;DHT22;49838;51.798;10.954;2023-09-07T12:53:21;34.40;27.80
64549;DHT22;49838;51.798;10.954;2023-09-07T12:55:51;34.50;27.90
64549;DHT22;49838;51.798;10.954;2023-09-07T12:58:20;34.50;27.70
64549;DHT22;49838;51.798;10.954;2023-09-07T13:00:48;34.50;27.90
64549;DHT22;49838;51.798;10.954;2023-09-07T13:03:17;34.50;27.90
64549;DHT22;49838;51.798;10.954;2023-09-07T13:05:44;34.40;27.80
64549;DHT22;49838;51.798;10.954;2023-09-07T13:08:11;34.50;27.50
64549;DHT22;49838;51.798;10.954;2023-09-07T13:10:39;34.50;27.80
64549;DHT22;49838;51.798;10.954;2023-09-07T13:13:06;34.50;27.80
64549;DHT22;49838;51.798;10.954;2023-09-07T13:15:35;34.50;27.80
64549;DHT22;49838;51.798;10.954;2023-09-07T13:18:03;34.50;27.90
64549;DHT22;49838;51.798;10.954;2023-09-07T13:20:30;34.50;27.80
64549;DHT22;49838;51.798;10.954;2023-09-07T13:22:58;34.50;28.00
64549;DHT22;49838;51.798;10.954;2023-09-07T13:25:26;34.40;28.10
64549;DHT22;49838;51.798;10.954;2023-09-07T13:27:53;34.40;28.00
64549;DHT22;49838;51.798;10.954;2023-09-07T13:30:21;34.50;27.80
64549;DHT22;49838;51.798;10.954;2023-09-07T13:32:50;34.50;27.80
64549;DHT22;49838;51.798;10.954;2023-09-07T13:35:17;34.50;27.90
64549;DHT22;49838;51.798;10.954;2023-09-07T13:37:44;34.40;27.90
64549;DHT22;49838;51.798;10.954;2023-09-07T13:40:12;34.30;27.80
64549;DHT22;49838;51.798;10.954;2023-09-07T13:42:41;34.30;27.80
64549;DHT22;49838;51.798;10.954;2023-09-07T13:45:09;34.40;27.80
64549;DHT22;49838;51.798;10.954;2023-09-07T13:47:37;34.40;27.50
64549;DHT22;49838;51.798;10.954;2023-09-07T13:50:07;34.50;27.50
64549;DHT22;49838;51.798;10.954;2023-09-07T13:52:34;34.50;27.40
64549;DHT22;49838;51.798;10.954;2023-09-07T13:55:02;34.50;27.50
64549;DHT22;49838;51.798;10.954;2023-09-07T13:57:29;34.50;27.60
64549;DHT22;49838;51.798;10.954;2023-09-07T13:59:57;34.40;27.70
64549;DHT22;49838;51.798;10.954;2023-09-07T14:02:24;34.40;27.70
64549;DHT22;49838;51.798;10.954;2023-09-07T14:04:51;34.40;27.80
64549;DHT22;49838;51.798;10.954;2023-09-07T14:07:20;34.40;27.80
64549;DHT22;49838;51.798;10.954;2023-09-07T14:09:51;34.40;27.70
64549;DHT22;49838;51.798;10.954;2023-09-07T14:12:18;34.40;27.80
64549;DHT22;49838;51.798;10.954;2023-09-07T14:14:46;34.30;27.90
64549;DHT22;49838;51.798;10.954;2023-09-07T14:17:13;34.40;27.80
64549;DHT22;49838;51.798;10.954;2023-09-07T14:19:41;34.40;28.00
64549;DHT22;49838;51.798;10.954;2023-09-07T14:22:08;34.50;27.80
64549;DHT22;49838;51.798;10.954;2023-09-07T14:24:37;34.50;27.80
64549;DHT22;49838;51.798;10.954;2023-09-07T14:27:04;34.50;27.90
64549;DHT22;49838;51.798;10.954;2023-09-07T14:29:34;34.40;27.80
64549;DHT22;49838;51.798;10.954;2023-09-07T14:32:05;34.40;27.70
64549;DHT22;49838;51.798;10.954;2023-09-07T14:34:32;34.40;27.60
64549;DHT22;49838;51.798;10.954;2023-09-07T14:37:02;34.50;27.80
64549;DHT22;49838;51.798;10.954;2023-09-07T14:39:30;34.50;27.60
64549;DHT22;49838;51.798;10.954;2023-09-07T14:41:58;34.50;27.80
64549;DHT22;49838;51.798;10.954;2023-09-07T14:44:27;34.50;27.80
64549;DHT22;49838;51.798;10.954;2023-09-07T14:46:54;34.40;27.70
64549;DHT22;49838;51.798;10.954;2023-09-07T14:49:22;34.40;27.80
64549;DHT22;49838;51.798;10.954;2023-09-07T14:51:49;34.40;27.90
64549;DHT22;49838;51.798;10.954;2023-09-07T14:54:16;34.40;27.90
64549;DHT22;49838;51.798;10.954;2023-09-07T14:56:44;34.30;28.00
64549;DHT22;49838;51.798;10.954;2023-09-07T14:59:14;34.30;27.90
64549;DHT22;49838;51.798;10.954;2023-09-07T15:01:41;34.30;27.90
64549;DHT22;49838;51.798;10.954;2023-09-07T15:04:09;34.20;28.10
64549;DHT22;49838;51.798;10.954;2023-09-07T15:06:36;34.20;28.30
64549;DHT22;49838;51.798;10.954;2023-09-07T15:09:06;34.20;28.10
64549;DHT22;49838;51.798;10.954;2023-09-07T15:11:34;34.20;28.20
64549;DHT22;49838;51.798;10.954;2023-09-07T15:14:01;34.10;28.30
64549;DHT22;49838;51.798;10.954;2023-09-07T15:16:33;34.00;28.40
64549;DHT22;49838;51.798;10.954;2023-09-07T15:19:01;34.00;28.20
64549;DHT22;49838;51.798;10.954;2023-09-07T15:21:35;34.00;28.10
64549;DHT22;49838;51.798;10.954;2023-09-07T15:24:06;34.00;28.20